createdAt,value
2023-03-01T00:02:01.478Z,7.38
2023-03-01T00:04:31.229Z,7.25
2023-03-01T00:07:00.849Z,7.97
2023-03-01T00:09:30.468Z,7.78
2023-03-01T00:12:00.060Z,6.88
2023-03-01T00:14:29.820Z,7.50
2023-03-01T00:16:59.556Z,7.97
2023-03-01T00:19:29.322Z,6.35
2023-03-01T00:21:59.023Z,6.95
2023-03-01T00:24:28.792Z,6.38
2023-03-01T00:26:59.021Z,7.03
2023-03-01T00:29:28.781Z,7.10
2023-03-01T00:31:58.489Z,6.40
2023-03-01T00:34:28.181Z,6.93
2023-03-01T00:36:57.984Z,7.28
2023-03-01T00:39:27.634Z,7.15
2023-03-01T00:41:58.905Z,6.90
2023-03-01T00:44:28.581Z,6.80
2023-03-01T00:46:58.271Z,6.28
2023-03-01T00:49:30.196Z,6.65
2023-03-01T00:51:59.817Z,6.10
2023-03-01T00:54:29.397Z,5.10
2023-03-01T00:56:59.024Z,5.35
2023-03-01T00:59:28.671Z,5.75
2023-03-01T01:01:58.267Z,5.90
2023-03-01T01:04:27.952Z,6.30
2023-03-01T01:06:57.548Z,5.80
2023-03-01T01:09:27.154Z,5.13
2023-03-01T01:11:56.757Z,5.85
2023-03-01T01:14:26.427Z,6.03
2023-03-01T01:16:56.197Z,6.03
2023-03-01T01:19:25.875Z,6.07
2023-03-01T01:21:55.579Z,5.40
2023-03-01T01:24:25.262Z,6.15
2023-03-01T01:26:54.922Z,5.90
2023-03-01T01:29:24.568Z,6.03
2023-03-01T01:31:54.191Z,6.15
2023-03-01T01:34:24.572Z,5.53
2023-03-01T01:36:57.282Z,6.00
2023-03-01T01:39:26.963Z,5.15
2023-03-01T01:41:56.549Z,5.65
2023-03-01T01:44:27.978Z,5.63
2023-03-01T01:47:00.453Z,5.32
2023-03-01T01:49:40.439Z,5.85
2023-03-01T01:52:34.991Z,5.32
2023-03-01T01:55:10.461Z,4.57
2023-03-01T01:57:45.079Z,5.47
2023-03-01T02:00:25.842Z,5.40
2023-03-01T02:03:06.479Z,5.18
2023-03-01T02:05:56.911Z,4.60
2023-03-01T02:08:28.616Z,4.95
2023-03-01T02:10:58.680Z,4.70
2023-03-01T02:13:28.600Z,5.00
2023-03-01T02:15:58.244Z,4.50
2023-03-01T02:18:27.957Z,4.30
2023-03-01T02:21:33.762Z,4.63
2023-03-01T02:24:07.924Z,3.97
2023-03-01T02:26:45.644Z,4.22
2023-03-01T02:29:15.337Z,4.30
2023-03-01T02:31:45.106Z,4.30
2023-03-01T02:34:27.704Z,3.90
2023-03-01T02:37:07.121Z,3.88
2023-03-01T02:39:45.551Z,4.18
2023-03-01T02:42:17.530Z,4.80
2023-03-01T02:44:47.477Z,4.18
2023-03-01T02:47:17.077Z,4.82
2023-03-01T02:49:46.690Z,4.85
2023-03-01T02:52:37.870Z,5.50
2023-03-01T02:55:15.594Z,5.20
2023-03-01T02:57:47.463Z,6.10
2023-03-01T03:00:22.387Z,5.93
2023-03-01T03:02:56.151Z,6.75
2023-03-01T03:05:28.123Z,6.90
2023-03-01T03:07:57.937Z,6.88
2023-03-01T03:10:32.454Z,6.40
2023-03-01T03:13:09.952Z,7.30
2023-03-01T03:15:41.039Z,7.70
2023-03-01T03:18:15.776Z,7.47
2023-03-01T03:20:45.774Z,7.78
2023-03-01T03:23:16.070Z,8.35
2023-03-01T03:25:45.664Z,7.75
2023-03-01T03:28:15.312Z,9.23
2023-03-01T03:30:46.657Z,8.55
2023-03-01T03:33:16.560Z,8.60
2023-03-01T03:35:48.135Z,8.43
2023-03-01T03:38:19.223Z,9.15
2023-03-01T03:40:50.630Z,9.40
2023-03-01T03:43:24.395Z,9.05
2023-03-01T03:45:54.810Z,8.50
2023-03-01T03:48:24.406Z,9.10
2023-03-01T03:50:55.549Z,8.80
2023-03-01T03:53:26.199Z,8.05
2023-03-01T03:55:56.111Z,8.82
2023-03-01T03:58:26.430Z,9.40
2023-03-01T04:01:00.914Z,10.88
2023-03-01T04:03:31.131Z,9.63
2023-03-01T04:06:01.756Z,8.32
2023-03-01T04:08:31.503Z,9.57
2023-03-01T04:11:25.374Z,9.13
2023-03-01T04:13:56.306Z,9.55
2023-03-01T04:16:26.207Z,9.43
2023-03-01T04:18:56.032Z,8.93
2023-03-01T04:21:25.698Z,8.05
2023-03-01T04:23:55.331Z,8.43
2023-03-01T04:26:24.946Z,8.35
2023-03-01T04:28:54.569Z,8.05
2023-03-01T04:31:27.373Z,7.93
2023-03-01T04:33:58.091Z,7.95
2023-03-01T04:36:29.909Z,8.13
2023-03-01T04:38:59.855Z,7.93
2023-03-01T04:41:29.625Z,7.78
2023-03-01T04:43:59.387Z,7.85
2023-03-01T04:46:29.468Z,8.60
2023-03-01T04:48:59.374Z,8.40
2023-03-01T04:51:28.994Z,8.73
2023-03-01T04:53:58.582Z,8.25
2023-03-01T04:56:28.258Z,8.07
2023-03-01T04:58:57.950Z,8.60
2023-03-01T05:01:27.643Z,7.60
2023-03-01T05:03:57.481Z,8.05
2023-03-01T05:06:27.101Z,8.07
2023-03-01T05:08:56.729Z,7.75
2023-03-01T05:11:26.523Z,8.57
2023-03-01T05:13:57.516Z,8.68
2023-03-01T05:16:27.194Z,8.10
2023-03-01T05:18:58.018Z,7.97
2023-03-01T05:21:27.734Z,7.80
2023-03-01T05:23:58.493Z,7.90
2023-03-01T05:26:31.210Z,7.72
2023-03-01T05:29:01.252Z,8.45
2023-03-01T05:31:32.961Z,8.98
2023-03-01T05:34:02.600Z,9.13
2023-03-01T05:36:32.459Z,8.48
2023-03-01T05:39:02.475Z,9.18
2023-03-01T05:41:32.096Z,8.07
2023-03-01T05:44:01.711Z,9.07
2023-03-01T05:46:32.302Z,8.73
2023-03-01T05:49:02.660Z,8.15
2023-03-01T05:51:32.316Z,9.48
2023-03-01T05:54:01.898Z,9.15
2023-03-01T05:56:32.064Z,8.52
2023-03-01T05:59:01.859Z,9.85
2023-03-01T06:01:31.849Z,8.75
2023-03-01T06:04:01.452Z,8.95
2023-03-01T06:06:31.418Z,9.23
2023-03-01T06:09:01.199Z,9.70
2023-03-01T06:11:30.823Z,10.15
2023-03-01T06:14:00.472Z,9.80
2023-03-01T06:16:30.326Z,8.95
2023-03-01T06:19:00.166Z,11.05
2023-03-01T06:21:29.869Z,9.95
2023-03-01T06:23:59.489Z,9.32
2023-03-01T06:26:29.434Z,10.45
2023-03-01T06:28:59.204Z,10.35
2023-03-01T06:31:28.989Z,9.05
2023-03-01T06:33:58.659Z,9.43
2023-03-01T06:36:28.791Z,10.55
2023-03-01T06:38:58.579Z,9.50
2023-03-01T06:41:28.514Z,8.52
2023-03-01T06:43:58.200Z,9.52
2023-03-01T06:46:27.854Z,8.10
2023-03-01T06:48:57.434Z,8.50
2023-03-01T06:51:27.718Z,8.40
2023-03-01T06:53:57.330Z,8.45
2023-03-01T06:56:26.924Z,8.68
2023-03-01T06:58:56.485Z,8.05
2023-03-01T07:01:26.173Z,7.28
2023-03-01T07:03:55.776Z,8.13
2023-03-01T07:06:25.712Z,8.32
2023-03-01T07:08:55.429Z,6.57
2023-03-01T07:11:25.752Z,7.60
2023-03-01T07:13:55.329Z,7.10
2023-03-01T07:16:25.221Z,7.68
2023-03-01T07:18:54.824Z,6.80
2023-03-01T07:21:24.407Z,7.00
2023-03-01T07:23:54.025Z,6.95
2023-03-01T07:26:25.284Z,6.43
2023-03-01T07:28:55.807Z,7.25
2023-03-01T07:31:25.433Z,6.80
2023-03-01T07:33:55.099Z,5.95
2023-03-01T07:36:24.908Z,6.45
2023-03-01T07:38:54.676Z,6.78
2023-03-01T07:41:24.474Z,5.80
2023-03-01T07:43:54.063Z,6.07
2023-03-01T07:46:23.718Z,5.68
2023-03-01T07:48:53.316Z,5.55
2023-03-01T07:51:23.116Z,5.25
2023-03-01T07:53:52.810Z,4.90
2023-03-01T07:56:23.988Z,5.18
2023-03-01T07:58:53.664Z,4.50
2023-03-01T08:01:23.801Z,5.05
2023-03-01T08:03:53.370Z,5.20
2023-03-01T08:06:23.190Z,4.95
2023-03-01T08:08:52.807Z,4.97
2023-03-01T08:11:22.440Z,5.70
2023-03-01T08:13:53.334Z,5.43
2023-03-01T08:16:23.693Z,5.53
2023-03-01T08:18:53.326Z,5.07
2023-03-01T08:21:22.900Z,4.45
2023-03-01T08:23:52.500Z,4.45
2023-03-01T08:26:23.459Z,4.20
2023-03-01T08:28:53.261Z,4.35
2023-03-01T08:31:23.972Z,4.60
2023-03-01T08:33:57.702Z,4.25
2023-03-01T08:36:29.149Z,4.03
2023-03-01T08:38:58.981Z,4.20
2023-03-01T08:41:28.750Z,3.95
2023-03-01T08:44:01.263Z,3.97
2023-03-01T08:46:38.721Z,3.90
2023-03-01T08:49:12.218Z,4.25
2023-03-01T08:51:42.040Z,4.18
2023-03-01T08:54:17.583Z,4.13
2023-03-01T08:56:47.447Z,3.63
2023-03-01T08:59:18.108Z,3.88
2023-03-01T09:01:47.757Z,3.78
2023-03-01T09:04:18.929Z,3.63
2023-03-01T09:06:48.670Z,3.47
2023-03-01T09:09:19.421Z,3.50
2023-03-01T09:11:49.208Z,3.67
2023-03-01T09:14:18.814Z,3.80
2023-03-01T09:16:49.260Z,3.47
2023-03-01T09:19:19.193Z,3.00
2023-03-01T09:21:55.123Z,2.90
2023-03-01T09:24:25.392Z,2.60
2023-03-01T09:26:57.484Z,3.15
2023-03-01T09:29:28.376Z,2.92
2023-03-01T09:31:58.052Z,3.13
2023-03-01T09:34:27.763Z,2.75
2023-03-01T09:36:57.408Z,2.95
2023-03-01T09:39:27.114Z,2.83
2023-03-01T09:42:06.965Z,2.42
2023-03-01T09:44:47.658Z,2.72
2023-03-01T09:47:22.778Z,2.60
2023-03-01T09:50:15.828Z,2.13
2023-03-01T09:52:46.764Z,2.50
2023-03-01T09:55:23.870Z,2.50
2023-03-01T09:57:58.989Z,2.70
2023-03-01T10:00:51.257Z,2.22
2023-03-01T10:03:46.769Z,2.30
2023-03-01T10:06:34.887Z,2.05
2023-03-01T10:09:15.848Z,2.50
2023-03-01T10:11:48.607Z,2.08
2023-03-01T10:15:00.421Z,2.65
2023-03-01T10:17:46.613Z,1.98
2023-03-01T10:20:30.188Z,2.63
2023-03-01T10:22:59.878Z,1.80
2023-03-01T10:25:43.483Z,2.38
2023-03-01T10:28:34.572Z,2.43
2023-03-01T10:31:04.278Z,2.50
2023-03-01T10:33:38.675Z,2.05
2023-03-01T10:36:08.849Z,1.83
2023-03-01T10:38:56.289Z,1.67
2023-03-01T10:41:27.366Z,1.48
2023-03-01T10:44:02.636Z,2.15
2023-03-01T10:46:36.911Z,2.00
2023-03-01T10:49:22.428Z,1.73
2023-03-01T10:51:53.731Z,1.80
2023-03-01T10:54:30.516Z,2.03
2023-03-01T10:57:01.820Z,1.98
2023-03-01T10:59:37.891Z,1.95
2023-03-01T11:02:45.555Z,2.00
2023-03-01T11:05:18.084Z,1.55
2023-03-01T11:07:58.982Z,2.33
2023-03-01T11:10:38.997Z,1.70
2023-03-01T11:13:21.945Z,2.20
2023-03-01T11:16:11.102Z,2.30
2023-03-01T11:18:48.224Z,1.90
2023-03-01T11:21:19.168Z,2.72
2023-03-01T11:23:49.473Z,2.63
2023-03-01T11:26:19.139Z,2.40
2023-03-01T11:28:51.599Z,2.38
2023-03-01T11:31:21.584Z,2.20
2023-03-01T11:34:08.872Z,2.58
2023-03-01T11:36:57.340Z,2.30
2023-03-01T11:40:14.590Z,2.00
2023-03-01T11:43:05.181Z,2.45
2023-03-01T11:46:04.342Z,2.50
2023-03-01T11:49:07.695Z,2.40
2023-03-01T11:52:09.554Z,2.38
2023-03-01T11:55:09.605Z,2.47
2023-03-01T11:57:44.952Z,2.95
2023-03-01T12:00:26.742Z,2.60
2023-03-01T12:03:25.199Z,2.72
2023-03-01T12:06:12.153Z,2.28
2023-03-01T12:08:45.515Z,2.67
2023-03-01T12:11:33.530Z,2.97
2023-03-01T12:14:03.200Z,3.50
2023-03-01T12:16:41.897Z,3.08
2023-03-01T12:19:45.965Z,3.03
2023-03-01T12:22:30.047Z,3.80
2023-03-01T12:25:14.819Z,3.50
2023-03-01T12:28:20.944Z,3.75
2023-03-01T12:31:08.333Z,3.40
2023-03-01T12:33:56.366Z,2.65
2023-03-01T12:36:44.145Z,3.03
2023-03-01T12:39:52.550Z,3.13
2023-03-01T12:42:37.356Z,3.70
2023-03-01T12:45:09.999Z,3.40
2023-03-01T12:48:12.018Z,3.33
2023-03-01T12:51:01.527Z,3.50
2023-03-01T12:54:00.496Z,4.20
2023-03-01T12:56:35.614Z,3.80
2023-03-01T12:59:54.087Z,3.45
2023-03-01T13:02:35.706Z,3.63
2023-03-01T13:05:27.355Z,3.58
2023-03-01T13:08:06.055Z,3.70
2023-03-01T13:10:51.745Z,3.80
2023-03-01T13:13:26.471Z,3.70
2023-03-01T13:15:56.149Z,4.28
2023-03-01T13:18:26.751Z,3.75
2023-03-01T13:20:56.988Z,4.05
2023-03-01T13:23:27.459Z,4.07
2023-03-01T13:26:16.507Z,3.30
2023-03-01T13:28:50.246Z,4.13
2023-03-01T13:31:22.421Z,4.22
2023-03-01T13:33:53.016Z,4.13
2023-03-01T13:36:31.952Z,4.30
2023-03-01T13:39:03.083Z,3.95
2023-03-01T13:41:44.890Z,4.68
2023-03-01T13:44:38.699Z,3.95
2023-03-01T13:47:19.971Z,4.70
2023-03-01T13:49:53.924Z,4.50
2023-03-01T13:52:41.908Z,3.88
2023-03-01T13:55:24.890Z,4.22
2023-03-01T13:57:58.819Z,4.95
2023-03-01T14:00:50.314Z,4.38
2023-03-01T14:03:21.986Z,4.45
2023-03-01T14:06:13.986Z,4.65
2023-03-01T14:08:46.680Z,4.43
2023-03-01T14:11:37.431Z,3.92
2023-03-01T14:14:28.589Z,5.18
2023-03-01T14:17:07.611Z,4.38
2023-03-01T14:19:37.242Z,4.70
2023-03-01T14:22:22.237Z,4.30
2023-03-01T14:24:52.952Z,4.72
2023-03-01T14:27:22.804Z,4.72
2023-03-01T14:30:03.088Z,4.32
2023-03-01T14:32:34.108Z,5.10
2023-03-01T14:35:03.800Z,4.72
2023-03-01T14:37:34.533Z,4.82
2023-03-01T14:40:05.620Z,5.20
2023-03-01T14:42:38.270Z,4.55
2023-03-01T14:45:08.460Z,4.40
2023-03-01T14:47:40.216Z,5.30
2023-03-01T14:50:23.176Z,5.10
2023-03-01T14:52:57.708Z,4.78
2023-03-01T14:55:43.611Z,4.53
2023-03-01T14:58:18.142Z,4.53
2023-03-01T15:01:07.734Z,4.60
2023-03-01T15:03:47.772Z,4.47
2023-03-01T15:06:21.718Z,4.47
2023-03-01T15:08:53.201Z,4.57
2023-03-01T15:11:29.911Z,5.28
2023-03-01T15:13:59.850Z,5.32
2023-03-01T15:16:36.567Z,4.55
2023-03-01T15:19:07.815Z,4.85
2023-03-01T15:21:39.060Z,4.80
2023-03-01T15:24:21.954Z,4.80
2023-03-01T15:27:00.041Z,4.50
2023-03-01T15:29:36.617Z,4.97
2023-03-01T15:32:27.467Z,5.07
2023-03-01T15:34:57.816Z,5.00
2023-03-01T15:37:51.009Z,6.13
2023-03-01T15:40:34.623Z,5.45
2023-03-01T15:43:09.020Z,5.25
2023-03-01T15:45:41.033Z,4.85
2023-03-01T15:48:22.788Z,5.43
2023-03-01T15:51:01.332Z,5.15
2023-03-01T15:53:31.055Z,5.05
2023-03-01T15:56:00.653Z,6.60
2023-03-01T15:58:30.346Z,5.22
2023-03-01T16:01:02.493Z,5.05
2023-03-01T16:03:32.378Z,5.05
2023-03-01T16:06:01.991Z,5.03
2023-03-01T16:08:31.736Z,5.10
2023-03-01T16:11:01.342Z,5.20
2023-03-01T16:13:31.051Z,6.22
2023-03-01T16:16:01.612Z,5.78
2023-03-01T16:18:31.257Z,5.80
2023-03-01T16:21:00.940Z,5.78
2023-03-01T16:23:30.498Z,5.15
2023-03-01T16:26:03.220Z,5.45
2023-03-01T16:28:32.823Z,5.55
2023-03-01T16:31:03.989Z,6.05
2023-03-01T16:33:34.354Z,6.38
2023-03-01T16:36:09.575Z,6.03
2023-03-01T16:38:39.282Z,5.18
2023-03-01T16:41:10.317Z,5.82
2023-03-01T16:43:39.914Z,5.68
2023-03-01T16:46:20.686Z,6.00
2023-03-01T16:48:50.429Z,6.10
2023-03-01T16:51:20.368Z,5.30
2023-03-01T16:53:50.038Z,5.28
2023-03-01T16:56:19.710Z,5.38
2023-03-01T16:58:49.317Z,5.82
2023-03-01T17:01:21.099Z,6.18
2023-03-01T17:03:51.338Z,5.95
2023-03-01T17:06:23.281Z,5.55
2023-03-01T17:08:52.869Z,5.95
2023-03-01T17:11:22.799Z,5.80
2023-03-01T17:13:52.434Z,5.63
2023-03-01T17:16:23.063Z,5.40
2023-03-01T17:18:52.811Z,4.78
2023-03-01T17:21:22.418Z,5.78
2023-03-01T17:23:53.637Z,6.22
2023-03-01T17:26:23.270Z,5.88
2023-03-01T17:28:54.176Z,5.88
2023-03-01T17:31:23.934Z,5.88
2023-03-01T17:33:54.652Z,4.95
2023-03-01T17:36:25.684Z,5.60
2023-03-01T17:38:55.312Z,5.45
2023-03-01T17:41:26.578Z,5.72
2023-03-01T17:43:56.268Z,5.90
2023-03-01T17:46:26.277Z,5.10
2023-03-01T17:48:56.004Z,5.22
2023-03-01T17:51:25.665Z,5.40
2023-03-01T17:53:55.257Z,5.07
2023-03-01T17:56:25.049Z,5.40
2023-03-01T17:58:54.647Z,5.40
2023-03-01T18:01:25.048Z,5.35
2023-03-01T18:03:55.313Z,5.68
2023-03-01T18:06:29.914Z,5.82
2023-03-01T18:08:59.809Z,5.30
2023-03-01T18:11:29.630Z,5.25
2023-03-01T18:13:59.393Z,4.78
2023-03-01T18:16:30.253Z,5.05
2023-03-01T18:19:00.225Z,4.88
2023-03-01T18:21:31.196Z,4.80
2023-03-01T18:24:03.790Z,4.95
2023-03-01T18:26:33.702Z,5.35
2023-03-01T18:29:05.906Z,5.28
2023-03-01T18:31:35.652Z,5.22
2023-03-01T18:34:05.208Z,5.53
2023-03-01T18:36:36.454Z,4.20
2023-03-01T18:39:07.405Z,5.35
2023-03-01T18:41:37.113Z,4.70
2023-03-01T18:44:07.093Z,4.75
2023-03-01T18:46:38.902Z,4.78
2023-03-01T18:49:09.466Z,4.93
2023-03-01T18:51:39.302Z,4.60
2023-03-01T18:54:08.960Z,5.13
2023-03-01T18:56:38.605Z,4.78
2023-03-01T18:59:08.185Z,4.95
2023-03-01T19:01:38.274Z,4.78
2023-03-01T19:04:08.163Z,4.63
2023-03-01T19:06:37.836Z,4.50
2023-03-01T19:09:08.419Z,4.68
2023-03-01T19:11:38.100Z,5.22
2023-03-01T19:14:07.837Z,4.65
2023-03-01T19:16:37.523Z,4.60
2023-03-01T19:19:07.900Z,4.45
2023-03-01T19:21:37.641Z,4.55
2023-03-01T19:24:07.596Z,4.50
2023-03-01T19:26:37.256Z,4.38
2023-03-01T19:29:07.817Z,4.90
2023-03-01T19:31:37.577Z,4.93
2023-03-01T19:34:12.104Z,4.63
2023-03-01T19:36:44.063Z,3.95
2023-03-01T19:39:14.949Z,4.25
2023-03-01T19:41:45.570Z,4.20
2023-03-01T19:44:15.691Z,4.68
2023-03-01T19:46:45.451Z,4.50
2023-03-01T19:49:15.045Z,4.82
2023-03-01T19:51:44.652Z,4.60
2023-03-01T19:54:16.257Z,4.75
2023-03-01T19:56:45.889Z,4.35
2023-03-01T19:59:15.576Z,4.28
2023-03-01T20:01:45.752Z,4.90
2023-03-01T20:04:15.394Z,4.18
2023-03-01T20:06:47.499Z,4.45
2023-03-01T20:09:21.917Z,3.85
2023-03-01T20:11:53.103Z,5.28
2023-03-01T20:14:24.008Z,3.83
2023-03-01T20:16:54.195Z,4.07
2023-03-01T20:19:23.904Z,3.88
2023-03-01T20:21:53.456Z,3.05
2023-03-01T20:24:23.147Z,4.70
2023-03-01T20:26:52.833Z,3.25
2023-03-01T20:29:23.554Z,3.33
2023-03-01T20:31:53.213Z,3.33
2023-03-01T20:34:22.920Z,3.03
2023-03-01T20:36:52.640Z,3.22
2023-03-01T20:39:22.347Z,2.83
2023-03-01T20:41:51.960Z,3.50
2023-03-01T20:44:21.575Z,3.00
2023-03-01T20:46:52.306Z,3.25
2023-03-01T20:49:23.035Z,2.88
2023-03-01T20:51:52.650Z,2.50
2023-03-01T20:54:22.277Z,2.80
2023-03-01T20:56:52.400Z,2.55
2023-03-01T20:59:22.024Z,3.20
2023-03-01T21:01:51.673Z,2.60
2023-03-01T21:04:21.451Z,4.25
2023-03-01T21:06:51.027Z,3.38
2023-03-01T21:09:20.755Z,2.85
2023-03-01T21:11:52.560Z,2.33
2023-03-01T21:14:23.066Z,2.67
2023-03-01T21:16:52.710Z,2.53
2023-03-01T21:19:25.083Z,3.20
2023-03-01T21:21:55.430Z,2.65
2023-03-01T21:24:25.107Z,2.58
2023-03-01T21:26:54.729Z,2.83
2023-03-01T21:29:24.366Z,2.42
2023-03-01T21:31:54.262Z,2.05
2023-03-01T21:34:23.861Z,2.65
2023-03-01T21:36:53.438Z,2.35
2023-03-01T21:39:23.791Z,2.65
2023-03-01T21:41:53.412Z,2.38
2023-03-01T21:44:22.989Z,2.50
2023-03-01T21:46:52.822Z,1.85
2023-03-01T21:49:22.939Z,2.25
2023-03-01T21:51:52.612Z,2.25
2023-03-01T21:54:22.442Z,2.60
2023-03-01T21:56:52.578Z,1.67
2023-03-01T21:59:23.419Z,1.92
2023-03-01T22:01:53.590Z,1.85
2023-03-01T22:04:24.999Z,2.00
2023-03-01T22:06:55.965Z,1.88
2023-03-01T22:09:25.980Z,1.95
2023-03-01T22:12:03.825Z,2.00
2023-03-01T22:14:34.096Z,1.90
2023-03-01T22:17:03.773Z,1.85
2023-03-01T22:19:33.763Z,2.00
2023-03-01T22:22:03.334Z,1.75
2023-03-01T22:24:32.958Z,1.50
2023-03-01T22:27:02.651Z,1.92
2023-03-01T22:29:32.247Z,1.60
2023-03-01T22:32:01.910Z,1.60
2023-03-01T22:34:32.227Z,2.17
2023-03-01T22:37:01.946Z,1.80
2023-03-01T22:39:31.668Z,2.15
2023-03-01T22:42:01.271Z,1.55
2023-03-01T22:44:30.964Z,1.95
2023-03-01T22:47:00.990Z,2.17
2023-03-01T22:49:30.690Z,1.70
2023-03-01T22:52:01.294Z,2.20
2023-03-01T22:54:31.198Z,2.22
2023-03-01T22:57:01.266Z,1.70
2023-03-01T22:59:31.128Z,1.85
2023-03-01T23:02:00.824Z,2.60
2023-03-01T23:04:30.570Z,2.08
2023-03-01T23:07:00.272Z,1.83
2023-03-01T23:09:32.278Z,2.05
2023-03-01T23:12:02.970Z,1.65
2023-03-01T23:14:34.126Z,2.15
2023-03-01T23:17:04.023Z,2.13
2023-03-01T23:19:34.689Z,2.55
2023-03-01T23:22:04.320Z,2.72
2023-03-01T23:24:34.191Z,2.28
2023-03-01T23:27:04.338Z,2.25
2023-03-01T23:29:34.170Z,2.28
2023-03-01T23:32:04.002Z,2.65
2023-03-01T23:34:33.797Z,2.00
2023-03-01T23:37:03.729Z,3.08
2023-03-01T23:39:34.260Z,2.42
2023-03-01T23:42:03.963Z,2.10
2023-03-01T23:44:33.779Z,2.38
2023-03-01T23:47:05.083Z,1.92
2023-03-01T23:49:34.788Z,1.75
2023-03-01T23:52:04.492Z,2.35
2023-03-01T23:54:34.228Z,2.83
2023-03-01T23:57:04.055Z,2.05
2023-03-01T23:59:33.708Z,2.35
